KCFD/CFD METAR and TAF weather

Enter ICAO airport designator
Station Type Date Time Source
KCFD METAR 2019/08/22 15:35 UTC NOAA

KCFD 221535Z AUTO 17004KT SCT026 SCT033 31/24 A3000 RMK AO2 T03090240 PWINO


Station Type Date Time Source
KCFD Decoded METAR 2019/08/22 15:35 UTC NOAA

Station name not available
Aug 22, 2019 - 11:35 AM EDT / 2019.08.22 1535 UTC
Wind: from the S (170 degrees) at 5 MPH (4 KT):0
Sky conditions: partly cloudy
Temperature: 87.6 F (30.9 C)
Heat index: 97.2 F (36.2 C):1
Dew Point: 75.2 F (24.0 C)
Relative Humidity: 66%
Pressure (altimeter): 30 in. Hg (1015 hPa)
ob: KCFD 221535Z AUTO 17004KT SCT026 SCT033 31/24 A3000 RMK AO2 T03090240 PWINO
cycle: 15

Station Type Date Time Source
KCFD TAF UTC NOAA

Error!

Example: see airport list